Airfield :







YOU CAN JOIN US ON...

 
LOGIN :

Register | Disclaimer

   EN    FR    IT 

 









Legend :    VFR   Marginal VFR   IFR   Intensive IFR   Very Intensive IFR
Visi :
Ceiling :
>= 8 km
>= 3000ft
5 to 8 km
1000 to 3000 ft
1500m to 5 km
500 to 1000 ft
800 to 1500m
200 to 500 ft
< 800m
< 200 ft
Symbols :   Thunderstorms  Fog  Heavy snow  Heavy precipitations  Wind > 20 kt







- Airport Elevation : 550 ft
- IATA code : YOY


CYOY - C J.H.L.(Joe) Lecomte) Heliport

CURRENT METAR :
  • 261853Z AUTO 24002KT 3SM +RA BKN013 OVC057 OVC069 19/17 A2973

EXPIRED METARs :
  • 261844Z AUTO 28004KT 220V300 5/8SM +RA OVC013 OVC069 OVC079 18/15 A2973
  • 261837Z AUTO 23004KT 2 1/4SM +RA OVC022 OVC069 19/15 A2973 RMK VSBY VRBL 0.6V9.+
  • 261818Z AUTO 23003KT 9SM BKN022 OVC069 20/15 A2972
  • 261800Z AUTO 28005KT 230V300 9SM -RA BKN022 OVC079 19/14 A2972 RMK SLP068
  • 261740Z AUTO 27004KT 180V340 9SM BKN016 BKN056 BKN064 OVC076 20/15 A2973
  • 261723Z AUTO 25004KT 200V300 9SM FEW016 FEW056 BKN076 19/16 A2973
  • 261713Z AUTO 25005KT 200V290 9SM BKN016 OVC081 19/16 A2973
  • 261648Z AUTO 25005KT 210V290 9SM OVC010 OVC040 OVC062 18/16 A2973
  • 261606Z AUTO 21003KT 160V270 8SM OVC005 OVC062 16/15 A2973

Expired Forecast.
CZUL FIR / North America



MET'MAP, your aeronautical weather chart ! - Copyright ORBIFLY December 2007 - Disclaimer

ORBIFLY MET'MAP TEAM :

Programming & Development : Alexandra Zaïnal
Concept & Development : Baudouin d'Aumeries
Co-Development & Prog : Marc-Olivier Méhu
Technical & hardware support : Manuel Goepfert

Contact : metmap@orbifly.com




SOURCES & CREDITS :

   NOAA